createdAt,value
2024-02-03T00:01:03.973Z,1156.9
2024-02-03T00:02:47.690Z,1152.2
2024-02-03T00:04:31.379Z,1150.8
2024-02-03T00:06:15.072Z,1148.6
2024-02-03T00:07:58.790Z,1147
2024-02-03T00:09:42.496Z,1147.9
2024-02-03T00:11:26.174Z,1145.4
2024-02-03T00:13:09.883Z,1139.5
2024-02-03T00:14:53.590Z,1136.6
2024-02-03T00:16:37.295Z,1132.5
2024-02-03T00:18:20.997Z,1129.6
2024-02-03T00:20:04.709Z,1125.1
2024-02-03T00:21:48.395Z,1115.4
2024-02-03T00:23:32.098Z,1106.4
2024-02-03T00:25:15.808Z,1100.9
2024-02-03T00:26:59.504Z,1094.8
2024-02-03T00:28:43.201Z,1093.8
2024-02-03T00:30:26.906Z,1093.8
2024-02-03T00:32:10.602Z,1090.1
2024-02-03T00:33:54.338Z,1084.1
2024-02-03T00:35:38.012Z,1082.1
2024-02-03T00:37:21.716Z,1081.1
2024-02-03T00:39:05.432Z,1075
2024-02-03T00:40:49.121Z,1069.6
2024-02-03T00:42:32.803Z,1070.8
2024-02-03T00:44:16.510Z,1067.8
2024-02-03T00:46:00.216Z,1064.5
2024-02-03T00:47:43.932Z,1065.5
2024-02-03T00:49:27.613Z,1063.7
2024-02-03T00:51:11.341Z,1054.9
2024-02-03T00:52:55.024Z,1048.5
2024-02-03T00:54:38.733Z,1051.2
2024-02-03T00:56:22.432Z,1050.7
2024-02-03T00:58:06.145Z,1049.4
2024-02-03T00:59:49.857Z,1052.6
2024-02-03T01:01:33.543Z,1047.6
2024-02-03T01:03:17.250Z,1042.1
2024-02-03T01:05:00.943Z,1032.9
2024-02-03T01:06:44.633Z,1028.3
2024-02-03T01:08:28.350Z,1026.3
2024-02-03T01:10:12.200Z,1023.6
2024-02-03T01:11:55.766Z,1019.6
2024-02-03T01:13:39.449Z,1014.1
2024-02-03T01:15:23.184Z,1009.9
2024-02-03T01:17:06.841Z,1008.5
2024-02-03T01:18:50.584Z,1009.1
2024-02-03T01:20:34.251Z,1010.5
2024-02-03T01:22:17.956Z,1009.4
2024-02-03T01:24:01.685Z,1005.8
2024-02-03T01:25:45.358Z,1000.9
2024-02-03T01:27:29.061Z,998.8
2024-02-03T01:29:12.748Z,998.5
2024-02-03T01:30:56.467Z,991.1
2024-02-03T01:32:40.176Z,992.6
2024-02-03T01:34:23.877Z,992.5
2024-02-03T01:36:07.563Z,989.5
2024-02-03T01:37:51.273Z,986.2
2024-02-03T01:39:34.974Z,981.7
2024-02-03T01:41:18.691Z,979.2
2024-02-03T01:43:02.369Z,975
2024-02-03T01:44:46.074Z,973.4
2024-02-03T01:46:29.778Z,973.9
2024-02-03T01:48:13.472Z,969.8
2024-02-03T01:49:57.178Z,964.8
2024-02-03T01:51:40.899Z,960.5
2024-02-03T01:53:24.609Z,956.5
2024-02-03T01:55:08.310Z,953.6
2024-02-03T01:56:52.009Z,951.7
2024-02-03T01:58:35.703Z,946.2
2024-02-03T02:00:19.413Z,944.2
2024-02-03T02:02:03.102Z,944.6
2024-02-03T02:03:46.817Z,948
2024-02-03T02:05:30.509Z,948.5
2024-02-03T02:07:14.201Z,945.4
2024-02-03T02:08:57.909Z,942
2024-02-03T02:10:41.625Z,941.7
2024-02-03T02:12:25.319Z,937.7
2024-02-03T02:14:08.997Z,933
2024-02-03T02:15:52.695Z,930.2
2024-02-03T02:17:36.425Z,925.3
2024-02-03T02:19:20.124Z,920.2
2024-02-03T02:21:03.837Z,919.4
2024-02-03T02:22:47.524Z,919
2024-02-03T02:24:31.215Z,919.9
2024-02-03T02:26:14.922Z,917.1
2024-02-03T02:27:58.620Z,914.1
2024-02-03T02:29:42.315Z,914.8
2024-02-03T02:31:26.033Z,912.7
2024-02-03T02:33:09.735Z,913.8
2024-02-03T02:34:53.438Z,913.4
2024-02-03T02:36:37.138Z,913.5
2024-02-03T02:38:20.820Z,907.4
2024-02-03T02:40:04.545Z,904.1
2024-02-03T02:41:48.246Z,897.4
2024-02-03T02:43:31.933Z,895.7
2024-02-03T02:45:15.644Z,894.1
2024-02-03T02:46:59.334Z,894
2024-02-03T02:48:43.035Z,892
2024-02-03T02:50:26.753Z,890.9
2024-02-03T02:52:10.450Z,887.8
2024-02-03T02:53:54.138Z,883.7
2024-02-03T02:55:37.845Z,882
2024-02-03T02:57:21.552Z,879.1
2024-02-03T02:59:05.268Z,879.3
2024-02-03T03:00:48.949Z,877.5
2024-02-03T03:02:32.650Z,875.5
2024-02-03T03:04:16.362Z,870.9
2024-02-03T03:06:00.068Z,864.3
2024-02-03T03:07:43.746Z,862.2
2024-02-03T03:11:11.160Z,858.4
2024-02-03T03:12:54.858Z,857.7
2024-02-03T03:14:38.578Z,855.8
2024-02-03T03:16:22.271Z,852.8
2024-02-03T03:18:05.944Z,851.4
2024-02-03T03:19:49.663Z,849.6
2024-02-03T03:21:33.383Z,847.3
2024-02-03T03:23:17.066Z,845
2024-02-03T03:25:00.771Z,841.1
2024-02-03T03:26:44.483Z,837.5
2024-02-03T03:28:28.182Z,836.7
2024-02-03T03:30:11.883Z,833.7
2024-02-03T03:31:55.570Z,830.3
2024-02-03T03:33:39.263Z,831.2
2024-02-03T03:35:23.004Z,830.1
2024-02-03T03:37:06.676Z,827
2024-02-03T03:38:50.384Z,827.1
2024-02-03T03:40:34.087Z,826.4
2024-02-03T03:42:17.793Z,826.5
2024-02-03T03:44:01.493Z,824.7
2024-02-03T03:45:45.194Z,824.9
2024-02-03T03:47:28.890Z,824.1
2024-02-03T03:49:12.584Z,820.9
2024-02-03T03:50:56.300Z,818.9
2024-02-03T03:52:40.013Z,815.6
2024-02-03T03:54:23.724Z,812.5
2024-02-03T03:56:07.397Z,808.2
2024-02-03T03:57:51.092Z,806.7
2024-02-03T03:59:34.821Z,805.6
2024-02-03T04:01:18.513Z,802.3
2024-02-03T04:03:02.203Z,799.7
2024-02-03T04:04:45.924Z,798.8
2024-02-03T04:06:29.618Z,799.1
2024-02-03T04:08:13.327Z,796.6
2024-02-03T04:09:57.018Z,793.6
2024-02-03T04:11:40.718Z,791.6
2024-02-03T04:13:24.426Z,789.2
2024-02-03T04:15:08.126Z,786.6
2024-02-03T04:16:51.829Z,785.1
2024-02-03T04:18:35.527Z,784.6
2024-02-03T04:20:19.223Z,780.8
2024-02-03T04:22:02.947Z,783.1
2024-02-03T04:23:46.633Z,784.4
2024-02-03T04:25:30.345Z,786.2
2024-02-03T04:27:14.054Z,785.2
2024-02-03T04:28:57.743Z,782
2024-02-03T04:30:41.450Z,780.1
2024-02-03T04:32:25.154Z,782.5
2024-02-03T04:34:08.844Z,781.5
2024-02-03T04:35:52.564Z,777
2024-02-03T04:37:36.252Z,768.6
2024-02-03T04:39:19.970Z,766.4
2024-02-03T04:41:03.657Z,763
2024-02-03T04:42:47.337Z,761.7
2024-02-03T04:44:31.045Z,758.8
2024-02-03T04:46:14.759Z,755.1
2024-02-03T04:47:58.462Z,754.7
2024-02-03T04:49:42.165Z,756.6
2024-02-03T04:51:25.879Z,757.8
2024-02-03T04:53:09.565Z,754.8
2024-02-03T04:54:53.276Z,754.7
2024-02-03T04:56:36.982Z,756.1
2024-02-03T04:58:20.664Z,758.4
2024-02-03T05:00:04.369Z,756.7
2024-02-03T05:01:48.080Z,754.7
2024-02-03T05:03:31.779Z,753.5
2024-02-03T05:05:15.491Z,751.4
2024-02-03T05:06:59.156Z,750.4
2024-02-03T05:08:42.878Z,748
2024-02-03T05:10:26.573Z,745.2
2024-02-03T05:12:10.271Z,741.9
2024-02-03T05:13:53.975Z,739.6
2024-02-03T05:15:37.677Z,737.9
2024-02-03T05:17:21.388Z,735.4
2024-02-03T05:19:05.080Z,734.9
2024-02-03T05:20:48.783Z,731.3
2024-02-03T05:22:32.477Z,728.6
2024-02-03T05:24:16.185Z,725.3
2024-02-03T05:25:59.877Z,724.4
2024-02-03T05:27:43.594Z,725.2
2024-02-03T05:29:27.260Z,725.2
2024-02-03T05:31:10.974Z,726.5
2024-02-03T05:32:54.675Z,723.5
2024-02-03T05:34:38.392Z,722.4
2024-02-03T05:36:22.090Z,719.9
2024-02-03T05:38:05.770Z,718.2
2024-02-03T05:39:49.487Z,718.4
2024-02-03T05:41:33.197Z,716.8
2024-02-03T05:43:16.889Z,714
2024-02-03T05:45:00.578Z,706.4
2024-02-03T05:46:44.292Z,702.5
2024-02-03T05:48:27.987Z,702
2024-02-03T05:50:11.685Z,700.2
2024-02-03T05:51:55.395Z,699.3
2024-02-03T05:53:39.098Z,699.2
2024-02-03T05:55:22.799Z,697.9
2024-02-03T05:57:06.492Z,697
2024-02-03T05:58:50.202Z,696.1
2024-02-03T06:00:33.895Z,695.6
2024-02-03T06:02:17.601Z,695.1
2024-02-03T06:04:01.301Z,690.7
2024-02-03T06:05:45.014Z,690.9
2024-02-03T06:07:28.686Z,689.9
2024-02-03T06:09:12.399Z,689.4
2024-02-03T06:10:56.116Z,688.6
2024-02-03T06:12:39.806Z,689
2024-02-03T06:14:23.507Z,686.4
2024-02-03T06:16:07.213Z,685.3
2024-02-03T06:17:50.906Z,685.6
2024-02-03T06:19:34.612Z,683.8
2024-02-03T06:21:18.323Z,683
2024-02-03T06:23:02.017Z,682.5
2024-02-03T06:24:45.707Z,681.2
2024-02-03T06:26:29.480Z,680.8
2024-02-03T06:28:13.125Z,680.8
2024-02-03T06:29:56.827Z,677.6
2024-02-03T06:31:40.543Z,670
2024-02-03T06:33:24.230Z,666
2024-02-03T06:35:07.940Z,668.9
2024-02-03T06:36:51.655Z,668
2024-02-03T06:38:35.323Z,668.3
2024-02-03T06:40:19.026Z,668.1
2024-02-03T06:42:02.734Z,668.9
2024-02-03T06:43:46.443Z,672.9
2024-02-03T06:45:30.131Z,675.8
2024-02-03T06:47:13.833Z,677.7
2024-02-03T06:48:57.540Z,678.1
2024-02-03T06:50:41.239Z,676.3
2024-02-03T06:52:24.945Z,675.8
2024-02-03T06:54:08.717Z,671.6
2024-02-03T06:55:52.340Z,666.7
2024-02-03T06:57:36.046Z,665.7
2024-02-03T06:59:19.749Z,665
2024-02-03T07:01:03.454Z,664.8
2024-02-03T07:02:47.155Z,669.2
2024-02-03T07:04:30.880Z,669.4
2024-02-03T07:06:14.577Z,669.9
2024-02-03T07:07:58.265Z,671.1
2024-02-03T07:09:41.967Z,670.6
2024-02-03T07:11:25.665Z,669.6
2024-02-03T07:13:09.391Z,666.5
2024-02-03T07:14:53.072Z,662.6
2024-02-03T07:16:36.787Z,663.4
2024-02-03T07:18:20.493Z,663.7
2024-02-03T07:20:04.183Z,663.3
2024-02-03T07:21:47.880Z,657.4
2024-02-03T07:23:31.574Z,654.2
2024-02-03T07:25:15.298Z,653.1
2024-02-03T07:26:58.992Z,655.2
2024-02-03T07:28:42.700Z,656.5
2024-02-03T07:30:26.398Z,655.5
2024-02-03T07:32:10.101Z,655
2024-02-03T07:33:53.788Z,655.4
2024-02-03T07:35:37.509Z,653.3
2024-02-03T07:37:21.197Z,651.7
2024-02-03T07:39:04.904Z,653.9
2024-02-03T07:40:48.625Z,660
2024-02-03T07:42:32.296Z,660.2
2024-02-03T07:44:15.971Z,662.3
2024-02-03T07:45:59.698Z,661
2024-02-03T07:47:43.407Z,660.9
2024-02-03T07:49:27.109Z,659.5
2024-02-03T07:51:10.789Z,657.9
2024-02-03T07:52:54.508Z,655.1
2024-02-03T07:54:38.202Z,655.4
2024-02-03T07:56:21.922Z,654.1
2024-02-03T07:58:05.618Z,653.7
2024-02-03T07:59:49.314Z,655.4
2024-02-03T08:01:33.015Z,653.7
2024-02-03T08:03:16.725Z,652.3
2024-02-03T08:05:00.435Z,652.2
2024-02-03T08:06:44.121Z,650.6
2024-02-03T08:08:27.825Z,650.2
2024-02-03T08:10:11.520Z,652.1
2024-02-03T08:12:27.126Z,654.6
2024-02-03T08:13:38.914Z,654.2
2024-02-03T08:15:22.624Z,655.1
2024-02-03T08:17:06.334Z,656.1
2024-02-03T08:18:50.037Z,657.5
2024-02-03T08:20:33.720Z,662.1
2024-02-03T08:22:17.423Z,665.8
2024-02-03T08:24:01.142Z,671.7
2024-02-03T08:25:44.833Z,680.2
2024-02-03T08:27:28.543Z,691.5
2024-02-03T08:29:12.227Z,717.3
2024-02-03T08:30:55.962Z,754.5
2024-02-03T08:32:39.658Z,777
2024-02-03T08:34:23.347Z,786.2
2024-02-03T08:36:07.025Z,788.6
2024-02-03T08:37:50.741Z,793.3
2024-02-03T08:39:34.431Z,804
2024-02-03T08:41:18.151Z,815.2
2024-02-03T08:43:01.846Z,815.3
2024-02-03T08:44:45.543Z,814.1
2024-02-03T08:46:29.261Z,807.5
2024-02-03T08:48:12.955Z,812.1
2024-02-03T08:49:56.656Z,820
2024-02-03T08:51:40.360Z,821.6
2024-02-03T08:53:24.057Z,816.1
2024-02-03T08:55:07.774Z,813.6
2024-02-03T08:56:51.474Z,810.8
2024-02-03T08:58:35.153Z,806.6
2024-02-03T09:00:18.863Z,806.7
2024-02-03T09:02:02.592Z,806
2024-02-03T09:03:46.284Z,802
2024-02-03T09:05:29.980Z,794.5
2024-02-03T09:07:13.677Z,790
2024-02-03T09:08:57.391Z,791.3
2024-02-03T09:10:41.091Z,794.3
2024-02-03T09:12:24.772Z,796.5
2024-02-03T09:14:08.508Z,798.5
2024-02-03T09:15:52.191Z,796.5
2024-02-03T09:17:35.889Z,797.1
2024-02-03T09:19:19.605Z,799.5
2024-02-03T09:21:03.295Z,801.2
2024-02-03T09:22:47.020Z,809.4
2024-02-03T09:24:30.702Z,811.7
2024-02-03T09:26:14.408Z,811.9
2024-02-03T09:27:58.092Z,814.8
2024-02-03T09:29:41.825Z,818.1
2024-02-03T09:31:25.502Z,818.9
2024-02-03T09:33:09.212Z,818.9
2024-02-03T09:34:52.928Z,827.6
2024-02-03T09:36:36.615Z,839.6
2024-02-03T09:38:20.320Z,840.9
2024-02-03T09:40:04.026Z,848.5
2024-02-03T09:41:47.738Z,854.3
2024-02-03T09:43:31.411Z,858.6
2024-02-03T09:45:15.110Z,860.8
2024-02-03T09:46:58.837Z,859.6
2024-02-03T09:48:42.516Z,861.2
2024-02-03T09:50:26.223Z,863.6
2024-02-03T09:52:09.932Z,862.8
2024-02-03T09:53:53.621Z,863.9
2024-02-03T09:55:37.327Z,877
2024-02-03T09:57:21.037Z,883.6
2024-02-03T09:59:04.752Z,888.8
2024-02-03T10:00:48.445Z,885.6
2024-02-03T10:02:32.147Z,884.7
2024-02-03T10:04:15.849Z,886
2024-02-03T10:05:59.531Z,891.5
2024-02-03T10:07:43.256Z,897.2
2024-02-03T10:09:26.951Z,907
2024-02-03T10:11:10.640Z,917
2024-02-03T10:12:54.334Z,920.8
2024-02-03T10:14:38.040Z,923.6
2024-02-03T10:16:21.758Z,930.2
2024-02-03T10:18:05.468Z,940.5
2024-02-03T10:19:49.168Z,946.3
2024-02-03T10:23:16.559Z,948
2024-02-03T10:25:00.262Z,945.5
2024-02-03T10:26:43.981Z,949
2024-02-03T10:28:27.661Z,956.9
2024-02-03T10:30:11.367Z,959.1
2024-02-03T10:31:55.070Z,956.7
2024-02-03T10:33:38.766Z,957.5
2024-02-03T10:35:22.465Z,963.2
2024-02-03T10:37:06.174Z,969
2024-02-03T10:38:49.877Z,972.3
2024-02-03T10:40:33.570Z,972.1
2024-02-03T10:42:17.293Z,969.2
2024-02-03T10:44:00.975Z,962.5
2024-02-03T10:45:44.687Z,961.4
2024-02-03T10:47:28.405Z,963.7
2024-02-03T10:49:12.101Z,962.6
2024-02-03T10:50:55.793Z,964.1
2024-02-03T10:52:39.494Z,965.4
2024-02-03T10:54:23.211Z,964.3
2024-02-03T10:56:06.914Z,966.8
2024-02-03T10:57:50.593Z,968.7
2024-02-03T10:59:34.305Z,968.4
2024-02-03T11:01:18.001Z,970.5
2024-02-03T11:03:01.715Z,973.1
2024-02-03T11:04:45.396Z,972.5
2024-02-03T11:06:29.131Z,972.2
2024-02-03T11:08:12.802Z,972
2024-02-03T11:09:56.518Z,969.1
2024-02-03T11:11:40.225Z,973.6
2024-02-03T11:13:23.919Z,986.2
2024-02-03T11:15:07.621Z,986.3
2024-02-03T11:16:51.348Z,984.8
2024-02-03T11:18:35.030Z,983.3
2024-02-03T11:20:18.726Z,988.1
2024-02-03T11:22:02.471Z,988.5
2024-02-03T11:23:46.171Z,991.5
2024-02-03T11:25:29.842Z,1002.5
2024-02-03T11:27:13.561Z,1008.2
2024-02-03T11:28:57.240Z,1011.1
2024-02-03T11:30:40.935Z,1014.6
2024-02-03T11:32:24.659Z,1016.7
2024-02-03T11:34:08.336Z,1013.1
2024-02-03T11:35:52.063Z,1014.3
2024-02-03T11:37:35.772Z,1013.9
2024-02-03T11:39:19.456Z,1013.9
2024-02-03T11:41:03.177Z,1015.3
2024-02-03T11:42:46.872Z,1016.8
2024-02-03T11:44:30.579Z,1017.5
2024-02-03T11:46:14.273Z,1018.8
2024-02-03T11:47:57.995Z,1017
2024-02-03T11:49:41.692Z,1013.8
2024-02-03T11:51:25.404Z,1015.6
2024-02-03T11:53:09.108Z,1019.1
2024-02-03T11:54:52.809Z,1019.7
2024-02-03T11:56:36.487Z,1021.4
2024-02-03T11:58:20.199Z,1027.2
2024-02-03T12:00:04.035Z,1028.5
2024-02-03T12:01:47.622Z,1030.6
2024-02-03T12:03:31.312Z,1033
2024-02-03T12:05:15.026Z,1035.5
2024-02-03T12:06:58.714Z,1038.1
2024-02-03T12:08:42.431Z,1040.1
2024-02-03T12:10:26.129Z,1045.4
2024-02-03T12:12:09.827Z,1053.6
2024-02-03T12:13:53.516Z,1057.3
2024-02-03T12:15:37.232Z,1064.7
2024-02-03T12:17:20.929Z,1069.1
2024-02-03T12:19:04.639Z,1074.5
2024-02-03T12:20:48.344Z,1081.8
2024-02-03T12:22:32.050Z,1084.6
2024-02-03T12:24:15.761Z,1086.9
2024-02-03T12:25:59.459Z,1091
2024-02-03T12:27:43.159Z,1091
2024-02-03T12:29:26.866Z,1092.2
2024-02-03T12:31:10.569Z,1092.9
2024-02-03T12:32:54.255Z,1088.9
2024-02-03T12:34:37.948Z,1088.5
2024-02-03T12:36:21.665Z,1085.3
2024-02-03T12:38:05.365Z,1085.7
2024-02-03T12:39:49.077Z,1084.8
2024-02-03T12:41:32.881Z,1081.6
2024-02-03T12:43:16.481Z,1079.2
2024-02-03T12:45:00.177Z,1077.8
2024-02-03T12:46:43.896Z,1074.7
2024-02-03T12:48:27.586Z,1057.3
2024-02-03T12:50:11.297Z,1042.5
2024-02-03T12:51:54.990Z,1040.4
2024-02-03T12:53:38.697Z,1037.4
2024-02-03T12:55:22.389Z,1032.1
2024-02-03T12:57:06.086Z,1026
2024-02-03T12:58:49.811Z,1027.5
2024-02-03T13:00:33.502Z,1027.1
2024-02-03T13:02:17.181Z,1026.8
2024-02-03T13:04:00.897Z,1027.7
2024-02-03T13:05:44.606Z,1026.2
2024-02-03T13:07:28.313Z,1028.9
2024-02-03T13:09:11.996Z,1029.2
2024-02-03T13:10:55.706Z,1028.4
2024-02-03T13:12:39.420Z,1027.5
2024-02-03T13:14:23.126Z,1028.3
2024-02-03T13:16:06.828Z,1030.3
2024-02-03T13:17:50.529Z,1026.4
2024-02-03T13:19:34.232Z,1028
2024-02-03T13:21:17.934Z,1025.5
2024-02-03T13:23:01.637Z,1022.5
2024-02-03T13:24:45.323Z,1018.9
2024-02-03T13:26:29.027Z,1014.4
2024-02-03T13:28:12.744Z,1011.6
2024-02-03T13:29:56.451Z,1012.1
2024-02-03T13:31:40.123Z,1013
2024-02-03T13:33:23.831Z,1011.4
2024-02-03T13:35:07.546Z,1009.2
2024-02-03T13:36:51.252Z,1005.8
2024-02-03T13:38:34.959Z,1001.8
2024-02-03T13:40:18.646Z,995.8
2024-02-03T13:42:02.328Z,994
2024-02-03T13:43:46.065Z,994.1
2024-02-03T13:45:29.748Z,993.7
2024-02-03T13:47:13.472Z,990.3
2024-02-03T13:48:57.179Z,990.6
2024-02-03T13:50:40.868Z,989.3
2024-02-03T13:52:24.589Z,985.2
2024-02-03T13:54:08.286Z,981.7
2024-02-03T13:55:51.981Z,980.8
2024-02-03T13:57:35.684Z,979.5
2024-02-03T13:59:19.404Z,977.4
2024-02-03T14:01:03.085Z,974.7
2024-02-03T14:02:46.804Z,974.3
2024-02-03T14:04:30.518Z,971.7
2024-02-03T14:06:14.214Z,969.9
2024-02-03T14:07:57.900Z,970.2
2024-02-03T14:09:41.603Z,968.8
2024-02-03T14:11:25.307Z,967.5
2024-02-03T14:13:09.018Z,966.9
2024-02-03T14:14:52.697Z,966.4
2024-02-03T14:16:36.405Z,960.7
2024-02-03T14:18:20.114Z,957.6
2024-02-03T14:20:03.835Z,956.1
2024-02-03T14:21:47.530Z,952
2024-02-03T14:23:31.224Z,947.3
2024-02-03T14:25:14.926Z,946.1
2024-02-03T14:26:58.645Z,944.3
2024-02-03T14:28:42.346Z,945
2024-02-03T14:30:26.037Z,943.2
2024-02-03T14:32:09.738Z,939.6
2024-02-03T14:33:53.441Z,935.8
2024-02-03T14:35:37.162Z,929.5
2024-02-03T14:37:20.832Z,925.5
2024-02-03T14:39:04.547Z,922.5
2024-02-03T14:40:48.248Z,921.8
2024-02-03T14:42:31.952Z,919.8
2024-02-03T14:44:15.679Z,915.7
2024-02-03T14:45:59.361Z,911.8
2024-02-03T14:47:43.046Z,905.7
2024-02-03T14:49:26.777Z,903.1
2024-02-03T14:51:10.479Z,904.1
2024-02-03T14:52:54.166Z,903.7
2024-02-03T14:54:37.890Z,903.6
2024-02-03T14:56:21.567Z,903.7
2024-02-03T14:58:05.275Z,906
2024-02-03T14:59:48.966Z,906.4
2024-02-03T15:01:32.678Z,903.2
2024-02-03T15:03:16.383Z,900.5
2024-02-03T15:05:00.075Z,899
2024-02-03T15:06:43.765Z,898.1
2024-02-03T15:08:27.477Z,897.2
2024-02-03T15:10:11.189Z,897.3
2024-02-03T15:11:54.886Z,898
2024-02-03T15:13:38.629Z,897.1
2024-02-03T15:15:22.300Z,898.2
2024-02-03T15:17:06.003Z,897.7
2024-02-03T15:18:49.706Z,893.5
2024-02-03T15:20:33.408Z,893.4
2024-02-03T15:22:17.103Z,890.9
2024-02-03T15:24:00.807Z,887
2024-02-03T15:25:44.523Z,884.7
2024-02-03T15:27:28.210Z,884.4
2024-02-03T15:29:12.056Z,884.6
2024-02-03T15:30:55.596Z,882.3
2024-02-03T15:32:39.312Z,880.5
2024-02-03T15:34:23.030Z,882.4
2024-02-03T15:36:06.725Z,881.8
2024-02-03T15:37:50.412Z,880.8
2024-02-03T15:39:34.093Z,876.6
2024-02-03T15:41:17.835Z,875
2024-02-03T15:43:01.514Z,874.9
2024-02-03T15:44:45.226Z,877.7
2024-02-03T15:46:28.920Z,876.7
2024-02-03T15:48:12.619Z,872.6
2024-02-03T15:49:56.331Z,872.2
2024-02-03T15:51:40.023Z,871.2
2024-02-03T15:53:23.741Z,869.1
2024-02-03T15:55:07.438Z,864.2
2024-02-03T15:56:51.147Z,860.5
2024-02-03T15:58:34.854Z,858.1
2024-02-03T16:00:18.550Z,856.1
2024-02-03T16:02:02.242Z,854
2024-02-03T16:03:45.944Z,851.7
2024-02-03T16:05:29.651Z,851.9
2024-02-03T16:07:13.338Z,849.6
2024-02-03T16:08:57.037Z,846.7
2024-02-03T16:10:40.751Z,843.1
2024-02-03T16:12:24.475Z,841.3
2024-02-03T16:14:08.164Z,837
2024-02-03T16:15:51.863Z,835.3
2024-02-03T16:17:35.577Z,832
2024-02-03T16:19:19.268Z,827.8
2024-02-03T16:21:02.961Z,825.5
2024-02-03T16:22:46.654Z,824.4
2024-02-03T16:24:30.369Z,823.6
2024-02-03T16:26:14.069Z,821.9
2024-02-03T16:27:57.748Z,813.7
2024-02-03T16:29:41.464Z,821
2024-02-03T16:31:25.162Z,823.8
2024-02-03T16:33:08.929Z,832.3
2024-02-03T16:34:52.586Z,837.9
2024-02-03T16:36:36.279Z,845.2
2024-02-03T16:38:19.979Z,848
2024-02-03T16:40:03.692Z,848
2024-02-03T16:41:47.380Z,848.7
2024-02-03T16:43:31.091Z,852
2024-02-03T16:45:14.796Z,857.1
2024-02-03T16:46:58.486Z,861.3
2024-02-03T16:48:42.206Z,863.6
2024-02-03T16:50:25.882Z,865
2024-02-03T16:52:09.584Z,867.3
2024-02-03T16:53:53.291Z,871
2024-02-03T16:55:36.995Z,878
2024-02-03T16:57:20.689Z,885.4
2024-02-03T16:59:04.400Z,891.9
2024-02-03T17:00:48.106Z,897.7
2024-02-03T17:02:31.826Z,904.7
2024-02-03T17:04:15.522Z,910.8
2024-02-03T17:05:59.214Z,913.7
2024-02-03T17:07:42.925Z,916
2024-02-03T17:09:26.608Z,916.8
2024-02-03T17:11:10.313Z,919.1
2024-02-03T17:12:54.010Z,918.9
2024-02-03T17:14:37.723Z,921.8
2024-02-03T17:16:21.429Z,926.8
2024-02-03T17:18:05.146Z,930.9
2024-02-03T17:19:48.829Z,935.5
2024-02-03T17:21:32.526Z,936.3
2024-02-03T17:23:16.231Z,936.2
2024-02-03T17:24:59.938Z,936.2
2024-02-03T17:26:43.640Z,934.3
2024-02-03T17:30:11.031Z,931.9
2024-02-03T17:31:54.740Z,933.3
2024-02-03T17:33:38.436Z,935.4
2024-02-03T17:35:22.135Z,929.3
2024-02-03T17:37:05.843Z,927.7
2024-02-03T17:38:49.541Z,924.4
2024-02-03T17:40:33.251Z,924.1
2024-02-03T17:42:16.941Z,925.8
2024-02-03T17:44:00.649Z,935.4
2024-02-03T17:45:44.353Z,934.2
2024-02-03T17:49:11.743Z,939.5
2024-02-03T17:50:55.451Z,938.6
2024-02-03T17:52:39.144Z,936.9
2024-02-03T17:54:22.847Z,938.7
2024-02-03T17:56:06.554Z,942.4
2024-02-03T17:57:50.254Z,944.8
2024-02-03T17:59:33.961Z,949.8
2024-02-03T18:01:17.667Z,950.4
2024-02-03T18:03:01.338Z,952.4
2024-02-03T18:04:45.063Z,954
2024-02-03T18:06:28.780Z,956
2024-02-03T18:08:12.480Z,955.3
2024-02-03T18:09:56.188Z,956.5
2024-02-03T18:11:39.888Z,957.7
2024-02-03T18:13:23.572Z,961.8
2024-02-03T18:15:07.281Z,959.4
2024-02-03T18:16:50.963Z,958.7
2024-02-03T18:18:34.672Z,955.5
2024-02-03T18:20:18.382Z,954.3
2024-02-03T18:22:02.098Z,956
2024-02-03T18:23:45.800Z,958.2
2024-02-03T18:25:29.510Z,958.9
2024-02-03T18:27:13.202Z,956
2024-02-03T18:28:57.011Z,954.5
2024-02-03T18:30:40.600Z,950.4
2024-02-03T18:32:24.304Z,949.1
2024-02-03T18:34:08.004Z,945.8
2024-02-03T18:35:51.697Z,939.1
2024-02-03T18:37:35.397Z,941.6
2024-02-03T18:39:19.130Z,941.4
2024-02-03T18:41:02.811Z,937
2024-02-03T18:42:46.511Z,934.4
2024-02-03T18:44:30.224Z,930.3
2024-02-03T18:46:13.925Z,930.1
2024-02-03T18:47:57.613Z,927.7
2024-02-03T18:49:41.329Z,924.3
2024-02-03T18:51:25.028Z,918.9
2024-02-03T18:53:08.727Z,915.2
2024-02-03T18:54:52.444Z,914.3
2024-02-03T18:56:36.134Z,912.8
2024-02-03T18:58:19.819Z,911.9
2024-02-03T19:00:03.516Z,911
2024-02-03T19:01:47.224Z,911.1
2024-02-03T19:03:30.952Z,908.5
2024-02-03T19:05:14.645Z,910
2024-02-03T19:06:58.356Z,908.1
2024-02-03T19:08:42.054Z,911.1
2024-02-03T19:10:25.738Z,911.1
2024-02-03T19:12:09.433Z,911.9
2024-02-03T19:13:53.161Z,911.7
2024-02-03T19:15:36.856Z,909.5
2024-02-03T19:17:20.553Z,906.7
2024-02-03T19:19:04.261Z,904.2
2024-02-03T19:20:47.954Z,902.6
2024-02-03T19:22:31.643Z,897.2
2024-02-03T19:24:15.345Z,896.9
2024-02-03T19:25:59.045Z,897.7
2024-02-03T19:27:42.747Z,897.6
2024-02-03T19:29:26.469Z,895.7
2024-02-03T19:31:10.172Z,891.9
2024-02-03T19:32:53.876Z,887.3
2024-02-03T19:34:37.558Z,884.1
2024-02-03T19:36:21.316Z,880
2024-02-03T19:38:04.959Z,874.2
2024-02-03T19:39:48.682Z,869.4
2024-02-03T19:41:32.341Z,872.8
2024-02-03T19:43:16.070Z,874.4
2024-02-03T19:44:59.819Z,876
2024-02-03T19:46:43.470Z,875.1
2024-02-03T19:48:27.181Z,871.8
2024-02-03T19:50:10.864Z,870.6
2024-02-03T19:51:54.579Z,869
2024-02-03T19:53:38.284Z,866.9
2024-02-03T19:55:21.974Z,865.2
2024-02-03T19:57:05.660Z,862.2
2024-02-03T19:58:49.363Z,856.2
2024-02-03T20:00:33.077Z,853.5
2024-02-03T20:02:16.775Z,851.7
2024-02-03T20:04:00.484Z,853.3
2024-02-03T20:05:44.192Z,853.6
2024-02-03T20:07:27.889Z,854.1
2024-02-03T20:09:11.597Z,853.2
2024-02-03T20:10:55.327Z,850.4
2024-02-03T20:12:38.990Z,847.9
2024-02-03T20:14:22.710Z,847.5
2024-02-03T20:16:06.396Z,845.6
2024-02-03T20:17:50.110Z,842.4
2024-02-03T20:19:33.779Z,842.7
2024-02-03T20:21:17.478Z,841.1
2024-02-03T20:23:01.199Z,839.1
2024-02-03T20:24:44.905Z,833.5
2024-02-03T20:26:28.614Z,832.1
2024-02-03T20:28:12.310Z,827.5
2024-02-03T20:29:56.007Z,827.6
2024-02-03T20:31:39.713Z,826.9
2024-02-03T20:33:23.436Z,826.1
2024-02-03T20:35:07.130Z,824.2
2024-02-03T20:36:50.825Z,825.4
2024-02-03T20:38:34.516Z,822.2
2024-02-03T20:40:18.214Z,822.5
2024-02-03T20:42:01.914Z,821.6
2024-02-03T20:43:45.612Z,816.9
2024-02-03T20:45:29.322Z,816.1
2024-02-03T20:47:13.029Z,817.7
2024-02-03T20:48:56.729Z,817.2
2024-02-03T20:50:40.430Z,818.6
2024-02-03T20:52:24.124Z,819.2
2024-02-03T20:54:07.824Z,817
2024-02-03T20:55:51.535Z,811.1
2024-02-03T20:57:35.235Z,808.2
2024-02-03T20:59:18.943Z,805.9
2024-02-03T21:01:02.652Z,802.1
2024-02-03T21:02:46.358Z,796.7
2024-02-03T21:04:30.042Z,797.9
2024-02-03T21:07:57.447Z,793
2024-02-03T21:09:41.153Z,791.6
2024-02-03T21:11:24.843Z,789.2
2024-02-03T21:13:08.548Z,788.2
2024-02-03T21:14:52.246Z,786.8
2024-02-03T21:16:35.956Z,785.2
2024-02-03T21:18:19.656Z,783.3
2024-02-03T21:20:03.363Z,784.8
2024-02-03T21:21:47.055Z,784.5
2024-02-03T21:23:30.808Z,784.4
2024-02-03T21:25:14.473Z,783
2024-02-03T21:26:58.164Z,781
2024-02-03T21:28:41.870Z,782.2
2024-02-03T21:30:25.568Z,780.3
2024-02-03T21:32:09.270Z,780.5
2024-02-03T21:33:52.936Z,779.8
2024-02-03T21:35:36.682Z,779.9
2024-02-03T21:37:20.361Z,777.9
2024-02-03T21:39:04.071Z,777.8
2024-02-03T21:40:47.773Z,778.4
2024-02-03T21:42:31.459Z,780.9
2024-02-03T21:44:15.191Z,780.5
2024-02-03T21:45:58.906Z,778.5
2024-02-03T21:47:42.588Z,776.9
2024-02-03T21:49:26.278Z,776.5
2024-02-03T21:51:09.979Z,777.6
2024-02-03T21:52:53.679Z,777.1
2024-02-03T21:54:37.392Z,775.2
2024-02-03T21:56:21.074Z,777.1
2024-02-03T21:58:04.780Z,778.1
2024-02-03T21:59:48.489Z,784
2024-02-03T22:01:32.204Z,786.1
2024-02-03T22:03:15.951Z,787.7
2024-02-03T22:04:59.564Z,786.7
2024-02-03T22:06:43.307Z,789.8
2024-02-03T22:08:26.993Z,827.3
2024-02-03T22:10:10.686Z,825.7
2024-02-03T22:11:54.398Z,827.5
2024-02-03T22:13:38.078Z,835.7
2024-02-03T22:15:21.797Z,835.1
2024-02-03T22:17:05.505Z,835.5
2024-02-03T22:18:49.211Z,835.2
2024-02-03T22:20:32.910Z,833
2024-02-03T22:22:16.631Z,833.3
2024-02-03T22:24:00.326Z,833
2024-02-03T22:25:44.035Z,835.3
2024-02-03T22:27:27.734Z,836.8